Time;durP1;ratioP1;P1;durP2;ratioP2;P2;SDS_P1;SDS_P2;PMS_P1;PMS_P2;Temp;Humidity;BMP_temperature;BMP_pressure;BME280_temperature;BME280_humidity;BME280_pressure;Samples;Min_cycle;Max_cycle;Signal;HPM_P1;HPM_P2
2023/09/09 00:02:03;;;;;;;7.73;6.13;;;21.90;99.90;;;;;;4950224;28;20225;-75
2023/09/09 00:04:29;;;;;;;6.93;6.23;;;21.90;99.90;;;;;;4947813;28;20237;-75
2023/09/09 00:06:56;;;;;;;7.80;6.73;;;21.80;99.90;;;;;;4930412;28;20234;-75
2023/09/09 00:09:21;;;;;;;7.07;6.37;;;21.80;99.90;;;;;;4930691;28;20912;-74
2023/09/09 00:11:47;;;;;;;8.33;7.30;;;21.80;99.90;;;;;;4935081;28;20638;-75
2023/09/09 00:14:13;;;;;;;8.27;6.57;;;21.70;99.90;;;;;;4941415;28;20307;-75
2023/09/09 00:16:38;;;;;;;8.70;7.20;;;21.70;99.90;;;;;;4946286;28;20238;-73
2023/09/09 00:19:05;;;;;;;7.47;6.77;;;21.70;99.90;;;;;;4962158;28;20233;-74
2023/09/09 00:21:30;;;;;;;9.13;7.87;;;21.60;99.90;;;;;;4961910;28;20221;-75
2023/09/09 00:23:56;;;;;;;8.43;6.93;;;21.60;99.90;;;;;;4960736;28;20474;-75
2023/09/09 00:26:22;;;;;;;7.43;6.73;;;21.60;99.90;;;;;;4962324;28;20226;-74
2023/09/09 00:28:48;;;;;;;8.03;7.17;;;21.50;99.90;;;;;;4961541;28;20249;-74
2023/09/09 00:31:14;;;;;;;7.73;7.03;;;21.50;99.90;;;;;;4942004;28;20328;-75
2023/09/09 00:33:39;;;;;;;10.10;7.50;;;21.50;99.90;;;;;;4942285;28;20289;-74
2023/09/09 00:36:05;;;;;;;8.00;7.10;;;21.50;99.90;;;;;;4941119;28;20256;-74
2023/09/09 00:38:31;;;;;;;8.30;6.83;;;21.50;99.90;;;;;;4948765;28;20237;-75
2023/09/09 00:41:12;;;;;;;7.67;6.83;;;21.50;99.90;;;;;;4961867;28;20482;-75
2023/09/09 00:43:38;;;;;;;8.90;7.40;;;21.40;99.90;;;;;;4946586;28;20225;-75
2023/09/09 00:46:08;;;;;;;8.03;7.03;;;21.40;99.90;;;;;;4947099;28;20470;-76
2023/09/09 00:48:35;;;;;;;7.83;6.63;;;21.30;99.90;;;;;;4946616;28;20557;-74
2023/09/09 00:51:01;;;;;;;11.10;8.83;;;21.30;99.90;;;;;;4961470;28;20470;-75
2023/09/09 00:53:27;;;;;;;8.87;7.17;;;21.30;99.90;;;;;;4945253;28;20969;-73
2023/09/09 00:55:53;;;;;;;9.63;7.10;;;21.20;99.90;;;;;;4962290;28;20816;-75
2023/09/09 00:58:19;;;;;;;8.60;7.80;;;21.20;99.90;;;;;;4945575;28;20230;-74
2023/09/09 01:00:44;;;;;;;12.03;7.53;;;21.10;99.90;;;;;;4949003;28;20571;-75
2023/09/09 01:03:10;;;;;;;9.27;6.57;;;21.10;99.90;;;;;;4957831;28;20227;-74
2023/09/09 01:05:38;;;;;;;9.67;7.50;;;21.10;99.90;;;;;;4960998;28;20230;-74
2023/09/09 01:08:04;;;;;;;8.17;7.03;;;21.10;99.90;;;;;;4941632;28;20811;-74
2023/09/09 01:10:30;;;;;;;7.53;6.83;;;21.00;99.90;;;;;;4945773;28;20478;-73
2023/09/09 01:12:56;;;;;;;8.27;6.87;;;20.90;99.90;;;;;;4947596;28;20472;-74
2023/09/09 01:15:22;;;;;;;8.40;7.00;;;20.80;99.90;;;;;;4952902;28;20378;-74
2023/09/09 01:17:48;;;;;;;8.57;7.30;;;20.80;99.90;;;;;;4947803;28;20230;-74
2023/09/09 01:20:17;;;;;;;8.07;7.17;;;20.80;99.90;;;;;;4948214;28;20218;-75
2023/09/09 01:22:50;;;;;;;9.07;7.63;;;20.80;99.90;;;;;;4947500;28;20541;-75
2023/09/09 01:25:19;;;;;;;7.70;6.90;;;20.80;99.90;;;;;;4959505;28;20470;-74
2023/09/09 01:27:45;;;;;;;8.60;7.80;;;20.70;99.90;;;;;;4937790;28;20463;-73
2023/09/09 01:30:11;;;;;;;9.40;7.20;;;20.80;99.90;;;;;;4947415;28;20535;-75
2023/09/09 01:32:37;;;;;;;8.47;7.53;;;20.80;99.90;;;;;;4962101;28;20364;-74
2023/09/09 01:35:04;;;;;;;11.60;7.53;;;20.70;99.90;;;;;;4947935;28;21026;-75
2023/09/09 01:37:31;;;;;;;7.57;6.53;;;20.70;99.90;;;;;;4962897;28;20302;-73
2023/09/09 01:39:57;;;;;;;8.33;7.33;;;20.60;99.90;;;;;;4946577;28;20469;-73
2023/09/09 01:42:23;;;;;;;7.60;6.80;;;20.60;99.90;;;;;;4949128;28;20592;-75
2023/09/09 01:44:49;;;;;;;8.13;7.33;;;20.70;99.90;;;;;;4946562;28;20466;-75
2023/09/09 01:47:14;;;;;;;9.03;7.93;;;20.60;99.90;;;;;;4962442;28;20480;-73
2023/09/09 01:49:42;;;;;;;9.43;7.70;;;20.50;99.90;;;;;;4947050;28;20223;-74
2023/09/09 01:52:08;;;;;;;8.17;7.40;;;20.50;99.90;;;;;;4952883;28;20489;-72
2023/09/09 01:54:34;;;;;;;8.20;6.80;;;20.60;99.90;;;;;;4947226;28;20473;-75
2023/09/09 01:57:00;;;;;;;9.80;8.00;;;20.60;99.90;;;;;;4953377;28;20485;-74
2023/09/09 01:59:27;;;;;;;7.70;6.90;;;20.60;99.90;;;;;;4928450;28;1043027;-74
2023/09/09 02:01:53;;;;;;;8.67;7.60;;;20.50;99.90;;;;;;4948931;28;20473;-75
2023/09/09 02:04:19;;;;;;;9.10;7.33;;;20.50;99.90;;;;;;4948344;28;20577;-74
2023/09/09 02:06:46;;;;;;;9.60;7.00;;;20.50;99.90;;;;;;4948234;28;20264;-77
2023/09/09 02:09:12;;;;;;;7.13;6.53;;;20.50;99.90;;;;;;4927175;28;20687;-75
2023/09/09 02:11:38;;;;;;;7.70;7.00;;;20.50;99.90;;;;;;4948159;28;20599;-74
2023/09/09 02:14:03;;;;;;;10.53;7.90;;;20.40;99.90;;;;;;4961952;28;20482;-75
2023/09/09 02:16:29;;;;;;;7.77;7.07;;;20.40;99.90;;;;;;4949306;28;20231;-76
2023/09/09 02:18:57;;;;;;;8.77;7.33;;;20.30;99.90;;;;;;4954290;28;20229;-74
2023/09/09 02:21:23;;;;;;;8.47;7.30;;;20.30;99.90;;;;;;4963312;28;20475;-75
2023/09/09 02:23:49;;;;;;;8.47;7.30;;;20.30;99.90;;;;;;4965101;28;20242;-75
2023/09/09 02:26:15;;;;;;;17.07;7.73;;;20.30;99.90;;;;;;4948490;28;20234;-75
2023/09/09 02:28:41;;;;;;;8.40;6.80;;;20.20;99.90;;;;;;4949224;28;20928;-75
2023/09/09 02:31:07;;;;;;;8.40;6.20;;;20.20;99.90;;;;;;4964213;28;20514;-76
2023/09/09 02:33:33;;;;;;;8.77;7.27;;;20.20;99.90;;;;;;4962574;28;20223;-75
2023/09/09 02:35:59;;;;;;;8.23;6.27;;;20.20;99.90;;;;;;4949490;28;20258;-74
2023/09/09 02:38:26;;;;;;;8.10;6.30;;;20.20;99.90;;;;;;4954757;28;20237;-76
2023/09/09 02:40:51;;;;;;;8.20;6.97;;;20.10;99.90;;;;;;4964011;28;20466;-75
2023/09/09 02:43:17;;;;;;;9.40;7.70;;;20.10;99.90;;;;;;4944945;28;20466;-75
2023/09/09 02:45:43;;;;;;;7.10;6.40;;;20.10;99.90;;;;;;4944676;28;20289;-76
2023/09/09 02:48:08;;;;;;;7.73;6.93;;;20.00;99.90;;;;;;4964176;28;20619;-75
2023/09/09 02:50:35;;;;;;;7.70;6.90;;;20.00;99.90;;;;;;4948639;28;20334;-75
2023/09/09 02:53:01;;;;;;;9.17;7.40;;;20.00;99.90;;;;;;4948179;28;20458;-77
2023/09/09 02:55:27;;;;;;;9.50;7.60;;;20.00;99.90;;;;;;4927707;28;20473;-75
2023/09/09 02:57:53;;;;;;;9.00;6.93;;;20.00;99.90;;;;;;4948036;28;20540;-75
2023/09/09 03:00:19;;;;;;;11.50;6.77;;;20.00;99.90;;;;;;4964353;28;20233;-75
2023/09/09 03:02:45;;;;;;;13.33;7.30;;;20.00;99.90;;;;;;4965174;28;20493;-75
2023/09/09 03:05:12;;;;;;;8.23;7.10;;;20.00;99.90;;;;;;4954500;28;20336;-75
2023/09/09 03:07:39;;;;;;;8.33;7.10;;;20.00;99.90;;;;;;4949641;28;20461;-75
2023/09/09 03:10:05;;;;;;;7.73;6.60;;;19.90;99.90;;;;;;4947682;28;20226;-73
2023/09/09 03:12:31;;;;;;;7.80;6.80;;;19.90;99.90;;;;;;4964704;28;20466;-75
2023/09/09 03:14:57;;;;;;;7.30;6.40;;;19.80;99.90;;;;;;4947106;28;20478;-76
2023/09/09 03:17:22;;;;;;;7.67;6.97;;;19.80;99.90;;;;;;4945023;28;20730;-75
2023/09/09 03:19:48;;;;;;;9.67;7.77;;;19.90;99.90;;;;;;4949746;28;20342;-76
2023/09/09 03:22:14;;;;;;;9.17;7.50;;;19.90;99.90;;;;;;4948272;28;20235;-74
2023/09/09 03:24:40;;;;;;;7.00;6.30;;;19.80;99.90;;;;;;4936109;28;20719;-75
2023/09/09 03:27:05;;;;;;;7.03;6.33;;;19.80;99.90;;;;;;4953129;28;20481;-74
2023/09/09 03:29:31;;;;;;;7.57;6.60;;;19.70;99.90;;;;;;4957997;28;20230;-74
2023/09/09 03:31:57;;;;;;;8.33;7.20;;;19.70;99.90;;;;;;4964436;28;20715;-76
2023/09/09 03:34:22;;;;;;;8.27;6.30;;;19.70;99.90;;;;;;4931209;28;20258;-75
2023/09/09 03:36:48;;;;;;;10.40;6.90;;;19.70;99.90;;;;;;4959713;28;20242;-75
2023/09/09 03:39:14;;;;;;;9.60;6.93;;;19.70;99.90;;;;;;4950202;28;20222;-74
2023/09/09 03:41:40;;;;;;;9.70;8.17;;;19.70;99.90;;;;;;4945627;28;20224;-75
2023/09/09 03:44:05;;;;;;;9.37;6.77;;;19.70;99.90;;;;;;4948242;28;20776;-75
2023/09/09 03:46:31;;;;;;;8.93;8.00;;;19.70;99.90;;;;;;4956943;28;20226;-75
2023/09/09 03:48:58;;;;;;;8.87;7.07;;;19.70;99.90;;;;;;4939772;28;20227;-76
2023/09/09 03:51:24;;;;;;;8.70;6.83;;;19.60;99.90;;;;;;4948432;28;20476;-75
2023/09/09 03:53:50;;;;;;;7.57;6.87;;;19.60;99.90;;;;;;4947837;28;20234;-75
2023/09/09 03:56:17;;;;;;;10.63;6.80;;;19.60;99.90;;;;;;4955735;28;20317;-73
2023/09/09 03:58:43;;;;;;;7.47;6.30;;;19.60;99.90;;;;;;4933313;28;20477;-75
2023/09/09 04:01:12;;;;;;;7.07;6.37;;;19.50;99.90;;;;;;4962356;28;20461;-76
2023/09/09 04:03:39;;;;;;;8.37;6.43;;;19.50;99.90;;;;;;4950380;28;20789;-76
2023/09/09 04:06:12;;;;;;;8.73;7.10;;;19.50;99.90;;;;;;4962887;28;21081;-74
2023/09/09 04:08:40;;;;;;;9.37;6.93;;;19.50;99.90;;;;;;4950449;28;21020;-74
2023/09/09 04:11:06;;;;;;;9.63;7.83;;;19.50;99.90;;;;;;4932984;28;21071;-75
2023/09/09 04:13:37;;;;;;;7.20;6.60;;;19.50;99.90;;;;;;4948328;28;20592;-75
2023/09/09 04:16:03;;;;;;;7.73;6.60;;;19.40;99.90;;;;;;4933677;28;20477;-74
2023/09/09 04:18:29;;;;;;;8.40;7.07;;;19.50;99.90;;;;;;4943093;28;20485;-74
2023/09/09 04:20:55;;;;;;;8.50;6.30;;;19.40;99.90;;;;;;4948560;28;20469;-76
2023/09/09 04:23:21;;;;;;;8.17;5.87;;;19.40;99.90;;;;;;4948226;28;21318;-75
2023/09/09 04:25:47;;;;;;;10.03;7.60;;;19.40;99.90;;;;;;4954575;28;20285;-76
2023/09/09 04:28:13;;;;;;;8.83;7.47;;;19.40;99.90;;;;;;4956503;28;20458;-75
2023/09/09 04:30:40;;;;;;;8.97;7.37;;;19.30;99.90;;;;;;4947589;28;20226;-73
2023/09/09 04:33:11;;;;;;;7.93;6.90;;;19.30;99.90;;;;;;4963144;28;20496;-74
2023/09/09 04:35:39;;;;;;;9.20;6.90;;;19.30;99.90;;;;;;4934234;28;20605;-75
2023/09/09 04:38:06;;;;;;;6.97;6.27;;;19.30;99.90;;;;;;4948426;28;20521;-76
2023/09/09 04:40:32;;;;;;;8.10;6.10;;;19.20;99.90;;;;;;4938278;28;20959;-75
2023/09/09 04:42:58;;;;;;;7.03;6.33;;;19.20;99.90;;;;;;4948357;28;20470;-74
2023/09/09 04:45:24;;;;;;;8.10;7.30;;;19.20;99.90;;;;;;4944514;28;20549;-75
2023/09/09 04:47:51;;;;;;;7.10;6.40;;;19.20;99.90;;;;;;4966221;28;20246;-76
2023/09/09 04:50:18;;;;;;;9.83;6.87;;;19.10;99.90;;;;;;4957994;28;20226;-75
2023/09/09 04:52:44;;;;;;;10.40;6.77;;;19.20;99.90;;;;;;4947669;28;20955;-74
2023/09/09 04:55:10;;;;;;;7.13;6.47;;;19.10;99.90;;;;;;4967105;28;20551;-76
2023/09/09 04:57:35;;;;;;;8.00;6.57;;;19.10;99.90;;;;;;4951990;28;20227;-73
2023/09/09 05:00:06;;;;;;;6.90;6.20;;;19.10;99.90;;;;;;4965110;28;20758;-73
2023/09/09 05:02:36;;;;;;;6.93;6.30;;;19.10;99.90;;;;;;4949313;28;20223;-74
2023/09/09 05:05:04;;;;;;;6.80;6.10;;;19.00;99.90;;;;;;4952090;28;20565;-75
2023/09/09 05:07:37;;;;;;;9.20;6.90;;;19.00;99.90;;;;;;4932174;28;21026;-75
2023/09/09 05:10:06;;;;;;;7.30;6.60;;;18.90;99.90;;;;;;4950250;28;20477;-74
2023/09/09 05:12:36;;;;;;;9.13;6.80;;;18.90;99.90;;;;;;4948759;28;21116;-75
2023/09/09 05:15:03;;;;;;;7.43;6.73;;;18.90;99.90;;;;;;4952656;28;20555;-75
2023/09/09 05:17:29;;;;;;;8.77;7.30;;;18.90;99.90;;;;;;4938047;28;21196;-76
2023/09/09 05:19:54;;;;;;;7.80;7.10;;;18.90;99.90;;;;;;4932974;28;20572;-75
2023/09/09 05:22:20;;;;;;;7.93;7.10;;;18.90;99.90;;;;;;4951166;28;20300;-74
2023/09/09 05:24:46;;;;;;;10.13;7.57;;;18.90;99.90;;;;;;4964665;28;20297;-75
2023/09/09 05:27:12;;;;;;;8.50;6.57;;;18.90;99.90;;;;;;4952298;28;20234;-74
2023/09/09 05:29:38;;;;;;;9.77;6.73;;;18.90;99.90;;;;;;4935582;28;20214;-75
2023/09/09 05:32:04;;;;;;;7.70;6.90;;;18.90;99.90;;;;;;4961109;28;20227;-73
2023/09/09 05:34:30;;;;;;;7.10;6.50;;;18.80;99.90;;;;;;4931055;28;20492;-75
2023/09/09 05:36:56;;;;;;;8.13;6.87;;;18.90;99.90;;;;;;4950188;28;20987;-74
2023/09/09 05:39:21;;;;;;;7.20;6.50;;;18.80;99.90;;;;;;4966997;28;20316;-73
2023/09/09 05:41:47;;;;;;;9.33;7.23;;;18.90;99.90;;;;;;4950895;28;20677;-74
2023/09/09 05:44:13;;;;;;;9.90;6.70;;;18.90;99.90;;;;;;4936128;28;20227;-73
2023/09/09 05:46:39;;;;;;;7.33;6.37;;;18.90;99.90;;;;;;4939316;28;20565;-74
2023/09/09 05:49:05;;;;;;;8.70;7.20;;;18.90;99.90;;;;;;4950387;28;20226;-75
2023/09/09 05:51:31;;;;;;;7.77;6.97;;;18.90;99.90;;;;;;4958948;28;20222;-74
2023/09/09 05:53:57;;;;;;;6.80;6.10;;;18.90;99.90;;;;;;4951945;28;21055;-75
2023/09/09 05:56:23;;;;;;;7.60;6.90;;;18.90;99.90;;;;;;4966189;28;20795;-75
2023/09/09 05:58:49;;;;;;;7.03;6.33;;;18.90;99.90;;;;;;4950400;28;20802;-74
2023/09/09 06:01:15;;;;;;;7.53;6.73;;;18.90;99.90;;;;;;4945363;28;20948;-74
2023/09/09 06:03:41;;;;;;;8.50;6.77;;;18.90;99.90;;;;;;4950398;28;20539;-76
2023/09/09 06:06:07;;;;;;;7.97;6.97;;;18.90;99.90;;;;;;4946003;28;21001;-74
2023/09/09 06:08:33;;;;;;;6.43;5.83;;;18.90;99.90;;;;;;4962230;28;20466;-75
2023/09/09 06:10:59;;;;;;;7.87;6.53;;;18.90;99.90;;;;;;4949390;28;20357;-76
2023/09/09 06:13:24;;;;;;;7.40;6.60;;;19.00;99.90;;;;;;4948990;28;20249;-76
2023/09/09 06:15:50;;;;;;;11.33;7.10;;;19.00;99.90;;;;;;4958115;28;20219;-75
2023/09/09 06:18:17;;;;;;;6.80;5.93;;;19.00;99.90;;;;;;4964672;28;20223;-75
2023/09/09 06:20:48;;;;;;;7.33;6.50;;;19.00;99.90;;;;;;4965806;28;20457;-74
2023/09/09 06:23:15;;;;;;;6.70;6.03;;;19.00;99.90;;;;;;4964581;28;20261;-75
2023/09/09 06:25:42;;;;;;;6.40;5.80;;;19.10;99.90;;;;;;4964156;28;20492;-75
2023/09/09 06:28:08;;;;;;;9.13;6.60;;;19.10;99.90;;;;;;4956449;28;20949;-75
2023/09/09 06:30:34;;;;;;;6.83;6.13;;;19.10;99.90;;;;;;4965902;28;20466;-74
2023/09/09 06:33:02;;;;;;;7.30;6.60;;;19.10;99.90;;;;;;4966122;28;20250;-75
2023/09/09 06:35:28;;;;;;;9.10;6.70;;;19.10;99.90;;;;;;4965568;28;20560;-74
2023/09/09 06:37:55;;;;;;;8.77;6.97;;;19.20;99.90;;;;;;4946867;28;20603;-75
2023/09/09 06:40:21;;;;;;;7.60;6.87;;;19.20;99.90;;;;;;4945999;28;20466;-75
2023/09/09 06:42:47;;;;;;;8.23;7.43;;;19.20;99.90;;;;;;4949636;28;20466;-74
2023/09/09 06:45:12;;;;;;;8.30;6.03;;;19.20;99.90;;;;;;4955908;28;20227;-75
2023/09/09 06:47:38;;;;;;;9.30;6.60;;;19.30;99.90;;;;;;4965582;28;20226;-74
2023/09/09 06:50:05;;;;;;;8.03;7.23;;;19.30;99.90;;;;;;4949346;28;20265;-75
2023/09/09 06:52:31;;;;;;;8.30;7.50;;;19.30;99.90;;;;;;4965451;28;20233;-74
2023/09/09 06:54:57;;;;;;;12.23;7.10;;;19.40;99.90;;;;;;4945600;28;20467;-74
2023/09/09 06:57:22;;;;;;;7.83;7.00;;;19.40;99.90;;;;;;4949106;28;20481;-74
2023/09/09 06:59:48;;;;;;;7.53;6.77;;;19.50;99.90;;;;;;4948891;28;20238;-75
2023/09/09 07:02:14;;;;;;;8.77;7.40;;;19.50;99.90;;;;;;4949751;28;20386;-74
2023/09/09 07:04:39;;;;;;;7.70;6.70;;;19.60;99.90;;;;;;4952099;28;20676;-74
2023/09/09 07:07:05;;;;;;;7.93;7.20;;;19.60;99.90;;;;;;4944999;28;20242;-74
2023/09/09 07:09:32;;;;;;;8.63;7.53;;;19.70;99.90;;;;;;4947918;28;20260;-74
2023/09/09 07:11:58;;;;;;;8.57;7.00;;;19.70;99.90;;;;;;4951247;28;20222;-75
2023/09/09 07:14:24;;;;;;;9.10;7.60;;;19.70;99.90;;;;;;4949380;28;20481;-74
2023/09/09 07:16:50;;;;;;;8.73;6.97;;;19.80;99.90;;;;;;4944403;28;20492;-74
2023/09/09 07:19:15;;;;;;;9.97;6.90;;;19.90;99.90;;;;;;4962295;28;20237;-75
2023/09/09 07:21:41;;;;;;;7.43;6.73;;;19.90;99.90;;;;;;4946186;28;20226;-74
2023/09/09 07:24:07;;;;;;;7.70;6.67;;;20.00;99.90;;;;;;4962556;28;20357;-75
2023/09/09 07:26:32;;;;;;;8.73;6.83;;;20.10;99.90;;;;;;4924235;28;20239;-74
2023/09/09 07:28:58;;;;;;;8.90;6.80;;;20.20;99.90;;;;;;4936637;28;20231;-74
2023/09/09 07:31:28;;;;;;;20.07;8.17;;;20.30;99.90;;;;;;4946090;28;20235;-73
2023/09/09 07:33:54;;;;;;;9.53;7.87;;;20.40;99.90;;;;;;4946658;28;20226;-74
2023/09/09 07:36:20;;;;;;;6.83;6.20;;;20.50;99.90;;;;;;4951774;28;20477;-74
2023/09/09 07:38:46;;;;;;;8.07;7.30;;;20.60;99.90;;;;;;4942480;28;20486;-74
2023/09/09 07:41:14;;;;;;;10.30;7.07;;;20.70;99.90;;;;;;4946321;28;20254;-74
2023/09/09 07:43:40;;;;;;;8.87;6.90;;;20.80;99.90;;;;;;4958412;28;20342;-75
2023/09/09 07:46:06;;;;;;;9.53;8.53;;;20.90;99.90;;;;;;4946971;28;20660;-73
2023/09/09 07:48:32;;;;;;;8.20;7.40;;;21.00;99.90;;;;;;4948189;28;20226;-75
2023/09/09 07:50:59;;;;;;;9.43;7.23;;;21.10;99.90;;;;;;4946299;28;20344;-74
2023/09/09 07:53:25;;;;;;;8.37;7.30;;;21.20;99.90;;;;;;4952888;28;20485;-75
2023/09/09 07:55:51;;;;;;;7.33;6.10;;;21.30;99.90;;;;;;4944020;28;20501;-74
2023/09/09 07:58:18;;;;;;;7.87;7.07;;;21.40;99.90;;;;;;4946243;28;20220;-75
2023/09/09 08:00:45;;;;;;;10.40;7.03;;;21.40;99.90;;;;;;4944902;28;20573;-76
2023/09/09 08:03:13;;;;;;;8.00;7.27;;;21.40;99.90;;;;;;4947290;28;20821;-73
2023/09/09 08:05:40;;;;;;;8.03;7.10;;;21.50;99.90;;;;;;4956775;28;20493;-76
2023/09/09 08:08:10;;;;;;;8.73;6.70;;;21.70;99.90;;;;;;4961582;28;20516;-75
2023/09/09 08:10:36;;;;;;;7.57;6.87;;;21.70;99.90;;;;;;4929687;28;20459;-75
2023/09/09 08:13:02;;;;;;;8.43;6.97;;;21.90;99.90;;;;;;4946431;28;20540;-74
2023/09/09 08:15:27;;;;;;;7.17;6.47;;;22.00;99.90;;;;;;4953602;28;20234;-72
2023/09/09 08:17:53;;;;;;;7.60;6.80;;;22.10;99.90;;;;;;4946524;28;20480;-74
2023/09/09 08:20:19;;;;;;;8.37;7.57;;;22.20;99.90;;;;;;4943504;28;20294;-75
2023/09/09 08:22:44;;;;;;;7.70;6.80;;;22.30;99.90;;;;;;4945855;28;20695;-73
2023/09/09 08:25:12;;;;;;;7.07;6.47;;;22.40;99.90;;;;;;4945777;28;20218;-74
2023/09/09 08:27:37;;;;;;;6.57;5.97;;;22.60;99.90;;;;;;4950884;28;20219;-74
2023/09/09 08:30:03;;;;;;;8.07;7.27;;;22.70;99.90;;;;;;4946991;28;20468;-74
2023/09/09 08:32:29;;;;;;;9.60;7.80;;;22.70;99.90;;;;;;4944333;28;20222;-74
2023/09/09 08:34:55;;;;;;;7.23;6.40;;;22.90;99.90;;;;;;4961614;28;20321;-75
2023/09/09 08:37:21;;;;;;;10.30;6.73;;;23.10;99.90;;;;;;4946216;28;20226;-75
2023/09/09 08:39:52;;;;;;;7.63;6.67;;;23.10;99.90;;;;;;4960088;28;20466;-76
2023/09/09 08:42:36;;;;;;;7.23;6.63;;;23.20;99.90;;;;;;4931777;28;21046;-75
2023/09/09 08:45:14;;;;;;;8.23;7.43;;;23.50;99.90;;;;;;4932960;28;20507;-75
2023/09/09 08:47:41;;;;;;;7.27;6.57;;;23.60;99.90;;;;;;4961780;28;20482;-74
2023/09/09 08:50:10;;;;;;;11.00;7.00;;;23.70;99.90;;;;;;4960756;28;20552;-74
2023/09/09 08:52:35;;;;;;;6.33;5.70;;;23.70;99.90;;;;;;4940441;28;20484;-74
2023/09/09 08:55:01;;;;;;;7.73;7.03;;;23.80;99.90;;;;;;4946170;28;20548;-75
2023/09/09 08:57:28;;;;;;;8.60;7.33;;;23.80;99.90;;;;;;4945012;28;20344;-75
2023/09/09 08:59:56;;;;;;;7.80;7.07;;;24.00;99.90;;;;;;4959978;28;20230;-76
2023/09/09 09:02:21;;;;;;;8.53;7.63;;;24.20;99.90;;;;;;4944551;28;20465;-75
2023/09/09 09:04:56;;;;;;;7.10;6.43;;;24.30;99.90;;;;;;4943956;28;20936;-76
2023/09/09 09:07:23;;;;;;;7.00;6.30;;;24.40;99.90;;;;;;4941208;28;20710;-76
2023/09/09 09:09:49;;;;;;;7.50;6.80;;;24.60;99.90;;;;;;4930473;28;21172;-76
2023/09/09 09:12:15;;;;;;;7.97;7.27;;;24.60;99.90;;;;;;4945039;28;20467;-77
2023/09/09 09:14:47;;;;;;;6.87;6.17;;;24.60;99.90;;;;;;4940848;28;20250;-76
2023/09/09 09:17:16;;;;;;;7.50;6.80;;;24.80;99.90;;;;;;4944137;28;20830;-77
2023/09/09 09:19:42;;;;;;;6.80;6.10;;;24.90;99.90;;;;;;4960685;28;20470;-78
2023/09/09 09:22:08;;;;;;;7.20;6.50;;;25.00;99.90;;;;;;4946788;28;20516;-77
2023/09/09 09:24:42;;;;;;;7.10;6.40;;;25.00;99.90;;;;;;4945232;28;20222;-76
2023/09/09 09:27:12;;;;;;;6.07;5.53;;;25.10;99.90;;;;;;4947220;28;20238;-77
2023/09/09 09:29:43;;;;;;;9.43;7.77;;;25.20;99.90;;;;;;4944221;28;20575;-76
2023/09/09 09:32:10;;;;;;;8.30;7.10;;;25.10;99.90;;;;;;4948928;28;20473;-77
2023/09/09 09:34:36;;;;;;;6.80;6.10;;;25.10;99.90;;;;;;4953441;28;20473;-78
2023/09/09 09:37:12;;;;;;;7.53;6.83;;;25.20;99.90;;;;;;4949616;28;21027;-76
2023/09/09 09:39:38;;;;;;;10.90;6.93;;;25.20;99.90;;;;;;4944360;28;20225;-77
2023/09/09 09:42:05;;;;;;;7.20;6.60;;;25.40;99.90;;;;;;4934940;28;20459;-75
2023/09/09 09:44:31;;;;;;;7.43;6.73;;;25.80;99.90;;;;;;4944416;28;20487;-75
2023/09/09 09:47:08;;;;;;;7.10;6.47;;;26.00;99.90;;;;;;4945356;28;20481;-77
2023/09/09 09:49:41;;;;;;;7.83;7.13;;;26.20;99.90;;;;;;4953790;28;20260;-76
2023/09/09 09:52:08;;;;;;;7.97;7.13;;;26.30;99.90;;;;;;4936245;28;21028;-76
2023/09/09 09:54:35;;;;;;;6.93;6.23;;;26.20;99.90;;;;;;4962039;28;20480;-78
2023/09/09 09:57:03;;;;;;;8.10;7.40;;;26.30;99.90;;;;;;4931254;28;20963;-76
2023/09/09 09:59:34;;;;;;;7.57;6.87;;;26.40;99.90;;;;;;4941825;28;20514;-76
2023/09/09 10:02:00;;;;;;;7.87;7.17;;;26.50;99.90;;;;;;4948734;28;20544;-78
2023/09/09 10:04:42;;;;;;;8.93;7.10;;;26.40;99.90;;;;;;4947448;28;20484;-77
2023/09/09 10:07:16;;;;;;;9.83;6.40;;;26.40;99.90;;;;;;4964841;28;20477;-78
2023/09/09 10:09:50;;;;;;;6.83;6.17;;;26.50;99.90;;;;;;4947190;28;20476;-76
2023/09/09 10:12:25;;;;;;;7.40;6.67;;;26.80;99.90;;;;;;4932051;28;20477;-78
2023/09/09 10:14:52;;;;;;;7.83;7.13;;;26.80;99.90;;;;;;4958936;28;20477;-78
2023/09/09 10:17:21;;;;;;;7.50;6.80;;;26.90;99.90;;;;;;4945879;28;20619;-78
2023/09/09 10:19:49;;;;;;;7.40;6.70;;;27.00;99.90;;;;;;4960855;28;20562;-77
2023/09/09 10:22:16;;;;;;;6.97;6.27;;;27.30;99.90;;;;;;4946965;28;20469;-76
2023/09/09 10:24:44;;;;;;;6.97;6.27;;;27.50;99.90;;;;;;4947093;28;21112;-76
2023/09/09 10:27:11;;;;;;;7.80;7.00;;;27.50;99.90;;;;;;4948506;28;20252;-77
2023/09/09 10:29:38;;;;;;;9.03;6.77;;;27.50;99.90;;;;;;4962621;28;20470;-77
2023/09/09 10:32:05;;;;;;;7.90;7.10;;;27.60;99.90;;;;;;4949747;28;20473;-76
2023/09/09 10:34:33;;;;;;;11.45;9.45;;;27.70;99.90;;;;;;4947080;28;20476;-75
2023/09/09 10:37:00;;;;;;;12.20;11.00;;;27.90;99.90;;;;;;4947055;28;20229;-77
2023/09/09 10:39:27;;;;;;;11.88;10.60;;;27.90;99.90;;;;;;4959190;28;20305;-77
2023/09/09 10:41:55;;;;;;;8.60;7.80;;;28.00;99.90;;;;;;4949710;28;20604;-78
2023/09/09 10:44:20;;;;;;;13.97;12.77;;;27.60;99.90;;;;;;4932875;28;20222;-76
2023/09/09 10:46:46;;;;;;;15.73;13.80;;;27.50;99.90;;;;;;4946849;28;20484;-77
2023/09/09 10:49:16;;;;;;;13.95;12.60;;;27.80;99.90;;;;;;4943591;28;20285;-76
2023/09/09 10:51:50;;;;;;;13.23;12.13;;;28.00;99.90;;;;;;4963653;28;20222;-76
2023/09/09 10:54:21;;;;;;;12.00;10.82;;;27.90;99.90;;;;;;4943907;28;21119;-75
2023/09/09 10:56:49;;;;;;;9.60;8.80;;;28.00;99.90;;;;;;4961251;28;20240;-77
2023/09/09 10:59:21;;;;;;;10.88;9.07;;;28.00;99.90;;;;;;4947901;28;20352;-77
2023/09/09 11:02:22;;;;;;;8.88;8.10;;;28.20;99.90;;;;;;4943722;28;20226;-77
2023/09/09 11:05:11;;;;;;;9.05;8.15;;;28.40;99.90;;;;;;4943407;28;20229;-78
2023/09/09 11:07:41;;;;;;;9.05;7.22;;;28.70;99.90;;;;;;4943723;28;20229;-78
2023/09/09 11:10:07;;;;;;;10.45;7.70;;;29.00;99.90;;;;;;4945384;28;20226;-77
2023/09/09 11:12:33;;;;;;;7.55;6.63;;;29.10;99.90;;;;;;4945384;28;20730;-76
2023/09/09 11:15:08;;;;;;;7.40;6.80;;;29.10;99.90;;;;;;4925649;28;20218;-78
2023/09/09 11:17:35;;;;;;;7.60;6.88;;;29.40;99.90;;;;;;4955697;28;20233;-77
2023/09/09 11:20:02;;;;;;;7.70;7.00;;;29.70;99.90;;;;;;4945254;28;20281;-77
2023/09/09 11:22:29;;;;;;;7.35;6.68;;;29.70;99.90;;;;;;4958326;28;20224;-78
2023/09/09 11:24:58;;;;;;;10.95;7.22;;;29.70;99.90;;;;;;4959995;28;20234;-77
2023/09/09 11:27:25;;;;;;;7.70;7.00;;;29.50;99.90;;;;;;4947378;28;20226;-77
2023/09/09 11:29:52;;;;;;;7.50;6.57;;;29.30;99.90;;;;;;4947018;28;20227;-76
2023/09/09 11:32:27;;;;;;;7.75;6.97;;;29.30;99.90;;;;;;4944608;28;20715;-77
2023/09/09 11:34:54;;;;;;;10.20;7.88;;;29.40;99.90;;;;;;4944093;28;20303;-78
2023/09/09 11:37:22;;;;;;;7.97;7.28;;;29.40;99.90;;;;;;4959238;28;20223;-77
2023/09/09 11:39:51;;;;;;;7.95;7.15;;;29.40;99.90;;;;;;4938713;28;20226;-78
2023/09/09 11:42:17;;;;;;;7.75;6.85;;;29.50;99.90;;;;;;4948285;28;20809;-78
2023/09/09 11:44:43;;;;;;;8.15;7.45;;;29.50;99.90;;;;;;4957259;28;20344;-79
2023/09/09 11:47:09;;;;;;;7.05;6.32;;;29.50;99.90;;;;;;4951013;28;20235;-78
2023/09/09 11:49:38;;;;;;;8.18;7.03;;;29.60;99.90;;;;;;4943299;28;20221;-77
2023/09/09 11:52:04;;;;;;;7.80;7.20;;;29.70;99.90;;;;;;4950192;28;20238;-76
2023/09/09 11:54:30;;;;;;;11.98;8.55;;;29.90;99.90;;;;;;4958913;28;20226;-77
2023/09/09 11:57:06;;;;;;;7.88;7.25;;;29.90;99.90;;;;;;4937325;28;20865;-78
2023/09/09 11:59:45;;;;;;;8.48;7.78;;;30.10;99.90;;;;;;4942553;28;20312;-77
2023/09/09 12:02:22;;;;;;;8.50;7.70;;;30.60;99.90;;;;;;4940737;28;20233;-78
2023/09/09 12:04:54;;;;;;;7.35;6.75;;;31.00;99.90;;;;;;4947971;28;20227;-76
2023/09/09 12:07:23;;;;;;;7.63;6.93;;;31.30;99.90;;;;;;4944181;28;20307;-77
2023/09/09 12:09:49;;;;;;;7.50;6.80;;;31.40;99.90;;;;;;4957650;28;20311;-78
2023/09/09 12:12:16;;;;;;;7.15;6.55;;;31.20;99.90;;;;;;4959558;28;20225;-78
2023/09/09 12:14:41;;;;;;;8.05;7.30;;;30.90;99.90;;;;;;4942918;28;20715;-78
2023/09/09 12:17:08;;;;;;;8.10;7.40;;;30.60;99.90;;;;;;4928240;28;20324;-77
2023/09/09 12:19:34;;;;;;;8.30;7.53;;;30.40;99.90;;;;;;4941816;28;20251;-76
2023/09/09 12:22:00;;;;;;;7.85;7.15;;;30.70;99.90;;;;;;4943432;28;20699;-77
2023/09/09 12:24:25;;;;;;;7.43;6.72;;;31.00;99.90;;;;;;4943867;28;20344;-78
2023/09/09 12:26:52;;;;;;;7.72;7.03;;;30.70;99.90;;;;;;4941924;28;20753;-78
2023/09/09 12:29:18;;;;;;;8.50;6.93;;;30.90;99.90;;;;;;4942869;28;20231;-79
2023/09/09 12:31:57;;;;;;;9.27;7.57;;;31.30;99.90;;;;;;4926967;28;20225;-78
2023/09/09 12:34:24;;;;;;;7.20;6.60;;;31.60;99.90;;;;;;4943445;28;20336;-79
2023/09/09 12:36:55;;;;;;;7.97;7.18;;;31.60;99.70;;;;;;4941608;28;20230;-78
2023/09/09 12:39:25;;;;;;;8.30;7.50;;;31.50;99.90;;;;;;4945685;28;20332;-76
2023/09/09 12:42:02;;;;;;;7.45;6.82;;;31.60;99.90;;;;;;4949006;28;20351;-77
2023/09/09 12:44:31;;;;;;;7.95;7.25;;;31.90;99.10;;;;;;4949669;28;20225;-77
2023/09/09 12:46:57;;;;;;;8.55;7.70;;;32.20;99.10;;;;;;4942482;28;20313;-77